Weather History for Payson, AZ

Change the Weather History Date:

Tuesday, February 26, 2013

  Actual Average Record
Temperature  
Mean Temperature 38 °F -  
Max Temperature 51 °F 60 °F 64 °F (2014)
Min Temperature 26 °F 28 °F 26 °F (2013)
Degree Days  
Heating Degree Days 26    
Moisture  
Dew Point 10 °F    
Average Humidity 39    
Maximum Humidity 69    
Minimum Humidity 11    
Precipitation  
Precipitation 0.00 in - - ()
Sea Level Pressure  
Sea Level Pressure 30.02 in    
Wind  
Wind Speed 6 mph (NNW)    
Max Wind Speed 20 mph    
Max Gust Speed 30 mph    
Visibility 10 miles    
Events      
Averages and records for this station are not official NWS values.
T = Trace of Precipitation, MM = Missing Value Source: NWS Daily Summary

Daily Weather History Graph

Daily Weather History Graph

Search for Another Location

Airport:

Trip Planner

Search our weather history database for the weather conditions in past years. The results will help you decide how hot, cold, wet, or windy it might be!

Date:

Astronomy

Feb. 26, 2013 Rise Set
Actual Time 6:57 AM MST 6:19 PM MST
Civil Twilight 6:32 AM MST 6:44 PM MST
Nautical Twilight 6:03 AM MST 7:13 PM MST
Astronomical Twilight 5:34 AM MST 7:42 PM MST
Moon 7:33 PM MST (2/26) 7:06 AM MST (2/26)
Length of Visible Light 12h 12m
Length of Day
11h 21m
Full, 99% of the Moon is Illuminated
Feb 26
Full
Mar 4
Last Quarter
Mar 11
New
Mar 19
First Quarter
Mar 27
Full

Hourly Weather History & Observations

Time (MST) Temp. Windchill Dew Point Humidity Pressure Visibility Wind Dir Wind Speed Gust Speed Precip Events Conditions
12:15 AM 30.2 °F - 19.4 °F 64% 30.04 in 10.0 mi Calm Calm - N/A   Clear
12:35 AM 30.2 °F - 17.6 °F 60% 30.04 in 10.0 mi Calm Calm - N/A   Clear
12:55 AM 30.2 °F - 17.6 °F 60% 30.03 in 10.0 mi Calm Calm - N/A   Clear
1:15 AM 30.2 °F - 17.6 °F 60% 30.04 in 10.0 mi Calm Calm - N/A   Clear
1:35 AM 28.4 °F 24.6 °F 17.6 °F 64% 30.04 in 10.0 mi WNW 3.5 mph - N/A   Clear
1:55 AM 28.4 °F 23.3 °F 17.6 °F 64% 30.04 in 10.0 mi WNW 4.6 mph - N/A   Clear
2:15 AM 26.6 °F 20.0 °F 17.6 °F 69% 30.03 in 10.0 mi NW 5.8 mph - N/A   Clear
2:35 AM 26.6 °F 21.2 °F 17.6 °F 69% 30.02 in 10.0 mi NW 4.6 mph - N/A   Clear
2:55 AM 28.4 °F 24.6 °F 17.6 °F 64% 30.01 in 10.0 mi NW 3.5 mph - N/A   Clear
3:15 AM 28.4 °F 23.3 °F 17.6 °F 64% 30.00 in 10.0 mi NW 4.6 mph - N/A   Clear
3:35 AM 28.4 °F - 17.6 °F 64% 29.99 in 10.0 mi Calm Calm - N/A   Clear
3:55 AM 28.4 °F - 17.6 °F 64% 29.99 in 10.0 mi Calm Calm - N/A   Clear
4:15 AM 28.4 °F - 17.6 °F 64% 29.98 in 10.0 mi Calm Calm - N/A   Clear
4:35 AM 26.6 °F 22.6 °F 17.6 °F 69% 29.98 in 10.0 mi NW 3.5 mph - N/A   Clear
4:55 AM 26.6 °F - 15.8 °F 64% 29.98 in 10.0 mi Calm Calm - N/A   Clear
5:15 AM 26.6 °F - 15.8 °F 64% 29.99 in 10.0 mi Calm Calm - N/A   Clear
5:35 AM 26.6 °F - 14.0 °F 59% 29.98 in 10.0 mi Calm Calm - N/A   Clear
5:55 AM 26.6 °F - 14.0 °F 59% 29.98 in 10.0 mi Calm Calm - N/A   Clear
6:15 AM 26.6 °F - 14.0 °F 59% 29.99 in 10.0 mi Calm Calm - N/A   Clear
6:35 AM 26.6 °F - 15.8 °F 64% 29.99 in 10.0 mi Calm Calm - N/A   Clear
6:55 AM 26.6 °F - 15.8 °F 64% 29.99 in 10.0 mi Calm Calm - N/A   Clear
7:15 AM 26.6 °F - 14.0 °F 59% 29.99 in 10.0 mi Calm Calm - N/A   Clear
7:35 AM 26.6 °F - 14.0 °F 59% 29.98 in 10.0 mi Calm Calm - N/A   Clear
7:55 AM 28.4 °F - 17.6 °F 64% 29.99 in 10.0 mi Calm Calm - N/A   Clear
8:15 AM 30.2 °F - 17.6 °F 60% 30.00 in 10.0 mi Calm Calm - N/A   Clear
8:35 AM 32.0 °F - 17.6 °F 55% 30.00 in 10.0 mi Calm Calm - N/A   Clear
8:55 AM 33.8 °F - 19.4 °F 56% 30.01 in 10.0 mi Calm Calm - N/A   Clear
9:35 AM 39.2 °F 34.2 °F 14.0 °F 36% 30.01 in 10.0 mi WSW 6.9 mph - N/A   Clear
9:55 AM 39.2 °F 33.6 °F 14.0 °F 36% 30.02 in 10.0 mi WSW 8.1 mph - N/A   Clear
10:15 AM 39.2 °F 32.5 °F 14.0 °F 36% 30.01 in 10.0 mi West 10.4 mph - N/A   Clear
10:35 AM 41.0 °F 35.8 °F 15.8 °F 36% 30.01 in 10.0 mi West 8.1 mph - N/A   Clear
10:55 AM 42.8 °F 36.2 °F 15.8 °F 34% 30.01 in 10.0 mi West 12.7 mph - N/A   Clear
11:35 AM 44.6 °F 37.8 °F 17.6 °F 34% 30.00 in 10.0 mi WSW 15.0 mph 19.6 mph N/A   Clear
11:55 AM 44.6 °F 37.8 °F 15.8 °F 31% 29.99 in 10.0 mi West 15.0 mph - N/A   Clear
12:15 PM 44.6 °F 37.2 °F 15.8 °F 31% 29.99 in 10.0 mi West 17.3 mph 23.0 mph N/A   Clear
12:35 PM 46.4 °F 39.2 °F 15.8 °F 29% 29.99 in 10.0 mi West 18.4 mph 23.0 mph N/A   Clear
12:55 PM 48.2 °F - 15.8 °F 27% 29.98 in 10.0 mi West 18.4 mph 24.2 mph N/A   Clear
1:15 PM 50.0 °F - 10.4 °F 20% 29.98 in 10.0 mi NW 13.8 mph - N/A   Clear
1:35 PM 51.8 °F - 8.6 °F 18% 29.98 in 10.0 mi NNW 17.3 mph 24.2 mph N/A   Clear
1:55 PM 50.0 °F - -4.0 °F 11% 29.98 in 10.0 mi NNW 18.4 mph 27.6 mph N/A   Clear
2:15 PM 48.2 °F - 1.4 °F 15% 29.98 in 10.0 mi NW 16.1 mph 29.9 mph N/A   Clear
2:35 PM 48.2 °F - 8.6 °F 20% 29.98 in 10.0 mi WNW 19.6 mph 24.2 mph N/A   Clear
2:55 PM 48.2 °F - 6.8 °F 19% 29.98 in 10.0 mi WNW 19.6 mph 24.2 mph N/A   Clear
3:15 PM 48.2 °F - 5.0 °F 17% 29.97 in 10.0 mi WNW 18.4 mph 24.2 mph N/A   Clear
3:35 PM 48.2 °F - 3.2 °F 16% 29.97 in 10.0 mi WNW 17.3 mph 23.0 mph N/A   Clear
3:55 PM 48.2 °F - 3.2 °F 16% 29.97 in 10.0 mi NW 15.0 mph 23.0 mph N/A   Clear
4:15 PM 48.2 °F - 3.2 °F 16% 29.97 in 10.0 mi WNW 16.1 mph 20.7 mph N/A   Clear
4:35 PM 48.2 °F - 3.2 °F 16% 29.98 in 10.0 mi NW 12.7 mph 19.6 mph N/A   Clear
5:15 PM 46.4 °F 43.5 °F 8.6 °F 22% 30.00 in 10.0 mi ENE 5.8 mph - N/A   Clear
5:35 PM 46.4 °F 41.5 °F 8.6 °F 22% 30.01 in 10.0 mi NE 10.4 mph - N/A   Clear
5:55 PM 44.6 °F 38.4 °F 8.6 °F 23% 30.02 in 10.0 mi NE 12.7 mph 16.1 mph N/A   Clear
6:15 PM 42.8 °F 37.0 °F 6.8 °F 23% 30.03 in 10.0 mi NNE 10.4 mph - N/A   Clear
6:35 PM 39.2 °F 33.6 °F 5.0 °F 24% 30.04 in 10.0 mi NNE 8.1 mph - N/A   Clear
6:55 PM 39.2 °F 32.5 °F 3.2 °F 22% 30.05 in 10.0 mi NNE 10.4 mph - N/A   Clear
7:15 PM 37.4 °F 28.9 °F 1.4 °F 22% 30.06 in 10.0 mi NNE 13.8 mph 20.7 mph N/A   Clear
7:35 PM 37.4 °F 29.3 °F -0.4 °F 20% 30.07 in 10.0 mi NNE 12.7 mph 20.7 mph N/A   Clear
7:55 PM 37.4 °F 29.8 °F -0.4 °F 20% 30.08 in 10.0 mi NE 11.5 mph 16.1 mph N/A   Clear
8:15 PM 35.6 °F 26.2 °F -0.4 °F 22% 30.09 in 10.0 mi NE 15.0 mph 19.6 mph N/A   Clear
8:35 PM 35.6 °F 26.6 °F -0.4 °F 22% 30.09 in 10.0 mi NE 13.8 mph 20.7 mph N/A   Clear
8:55 PM 35.6 °F 28.6 °F -0.4 °F 22% 30.10 in 10.0 mi NE 9.2 mph - N/A   Clear
9:15 PM 35.6 °F 28.6 °F 1.4 °F 24% 30.11 in 10.0 mi NNE 9.2 mph - N/A   Clear
9:35 PM 33.8 °F 26.4 °F 1.4 °F 25% 30.11 in 10.0 mi NE 9.2 mph - N/A   Clear
9:55 PM 33.8 °F 24.8 °F -0.4 °F 23% 30.11 in 10.0 mi NE 12.7 mph - N/A   Clear
10:15 PM 33.8 °F 24.8 °F -0.4 °F 23% 30.12 in 10.0 mi NE 12.7 mph - N/A   Clear
10:35 PM 33.8 °F 25.3 °F -0.4 °F 23% 30.12 in 10.0 mi NNE 11.5 mph 17.3 mph N/A   Clear
10:55 PM 33.8 °F 24.8 °F -0.4 °F 23% 30.13 in 10.0 mi NNE 12.7 mph 20.7 mph N/A   Clear
11:15 PM 33.8 °F 27.0 °F -2.2 °F 22% 30.13 in 10.0 mi NE 8.1 mph - N/A   Clear
11:35 PM 32.0 °F 28.7 °F -4.0 °F 21% 30.14 in 10.0 mi NE 3.5 mph - N/A   Clear
11:55 PM 32.0 °F 27.5 °F -4.0 °F 21% 30.14 in 10.0 mi NE 4.6 mph - N/A   Clear